sensor_id;sensor_type;location;lat;lon;timestamp;temperature;humidity
728;DHT22;347;48.780;9.158;2024-02-14T00:01:52;10.10;16.40
728;DHT22;347;48.780;9.158;2024-02-14T00:04:18;10.00;16.10
728;DHT22;347;48.780;9.158;2024-02-14T00:06:44;10.00;16.00
728;DHT22;347;48.780;9.158;2024-02-14T00:09:10;10.00;16.20
728;DHT22;347;48.780;9.158;2024-02-14T00:11:36;10.00;16.10
728;DHT22;347;48.780;9.158;2024-02-14T00:14:02;10.10;16.00
728;DHT22;347;48.780;9.158;2024-02-14T00:16:28;10.10;15.90
728;DHT22;347;48.780;9.158;2024-02-14T00:18:56;10.10;15.90
728;DHT22;347;48.780;9.158;2024-02-14T00:21:29;10.10;15.80
728;DHT22;347;48.780;9.158;2024-02-14T00:24:03;10.10;16.00
728;DHT22;347;48.780;9.158;2024-02-14T00:26:28;10.10;15.80
728;DHT22;347;48.780;9.158;2024-02-14T00:28:54;10.00;15.90
728;DHT22;347;48.780;9.158;2024-02-14T00:31:19;10.00;15.80
728;DHT22;347;48.780;9.158;2024-02-14T00:33:46;9.90;16.90
728;DHT22;347;48.780;9.158;2024-02-14T00:36:12;9.90;17.20
728;DHT22;347;48.780;9.158;2024-02-14T00:38:37;9.90;17.20
728;DHT22;347;48.780;9.158;2024-02-14T00:41:03;10.00;16.30
728;DHT22;347;48.780;9.158;2024-02-14T00:43:28;10.00;16.10
728;DHT22;347;48.780;9.158;2024-02-14T00:45:54;10.10;16.00
728;DHT22;347;48.780;9.158;2024-02-14T00:48:24;10.10;15.90
728;DHT22;347;48.780;9.158;2024-02-14T00:50:50;10.20;15.60
728;DHT22;347;48.780;9.158;2024-02-14T00:53:17;10.20;15.80
728;DHT22;347;48.780;9.158;2024-02-14T00:55:43;10.00;15.40
728;DHT22;347;48.780;9.158;2024-02-14T00:58:10;9.80;17.40
728;DHT22;347;48.780;9.158;2024-02-14T01:00:41;9.70;17.20
728;DHT22;347;48.780;9.158;2024-02-14T01:03:10;9.60;17.50
728;DHT22;347;48.780;9.158;2024-02-14T01:05:40;9.50;17.90
728;DHT22;347;48.780;9.158;2024-02-14T01:08:44;9.20;18.80
728;DHT22;347;48.780;9.158;2024-02-14T01:11:41;9.20;19.80
728;DHT22;347;48.780;9.158;2024-02-14T01:14:07;9.40;20.80
728;DHT22;347;48.780;9.158;2024-02-14T01:16:49;9.50;20.60
728;DHT22;347;48.780;9.158;2024-02-14T01:19:17;9.60;21.60
728;DHT22;347;48.780;9.158;2024-02-14T01:21:45;9.70;22.10
728;DHT22;347;48.780;9.158;2024-02-14T01:24:14;9.70;22.60
728;DHT22;347;48.780;9.158;2024-02-14T01:26:48;9.80;21.90
728;DHT22;347;48.780;9.158;2024-02-14T01:29:20;9.90;22.00
728;DHT22;347;48.780;9.158;2024-02-14T01:31:49;9.90;22.40
728;DHT22;347;48.780;9.158;2024-02-14T01:34:17;9.90;22.80
728;DHT22;347;48.780;9.158;2024-02-14T01:36:46;10.00;22.30
728;DHT22;347;48.780;9.158;2024-02-14T01:39:13;10.10;22.20
728;DHT22;347;48.780;9.158;2024-02-14T01:41:49;10.10;22.50
728;DHT22;347;48.780;9.158;2024-02-14T01:44:18;10.20;21.90
728;DHT22;347;48.780;9.158;2024-02-14T01:46:45;10.20;21.20
728;DHT22;347;48.780;9.158;2024-02-14T01:49:14;10.20;21.40
728;DHT22;347;48.780;9.158;2024-02-14T01:51:43;10.30;21.10
728;DHT22;347;48.780;9.158;2024-02-14T01:54:11;10.30;20.70
728;DHT22;347;48.780;9.158;2024-02-14T01:56:42;10.30;20.90
728;DHT22;347;48.780;9.158;2024-02-14T01:59:12;10.30;21.40
728;DHT22;347;48.780;9.158;2024-02-14T02:01:46;10.10;22.70
728;DHT22;347;48.780;9.158;2024-02-14T02:04:17;9.90;23.40
728;DHT22;347;48.780;9.158;2024-02-14T02:06:50;9.70;23.60
728;DHT22;347;48.780;9.158;2024-02-14T02:09:36;9.50;23.80
728;DHT22;347;48.780;9.158;2024-02-14T02:12:30;9.50;24.00
728;DHT22;347;48.780;9.158;2024-02-14T02:14:56;9.50;23.60
728;DHT22;347;48.780;9.158;2024-02-14T02:17:22;9.40;23.50
728;DHT22;347;48.780;9.158;2024-02-14T02:19:49;9.30;23.80
728;DHT22;347;48.780;9.158;2024-02-14T02:22:16;9.10;23.90
728;DHT22;347;48.780;9.158;2024-02-14T02:24:45;9.00;24.50
728;DHT22;347;48.780;9.158;2024-02-14T02:27:13;8.80;25.00
728;DHT22;347;48.780;9.158;2024-02-14T02:29:41;8.80;25.20
728;DHT22;347;48.780;9.158;2024-02-14T02:32:07;8.70;25.50
728;DHT22;347;48.780;9.158;2024-02-14T02:34:35;8.90;25.50
728;DHT22;347;48.780;9.158;2024-02-14T02:37:05;8.90;25.70
728;DHT22;347;48.780;9.158;2024-02-14T02:39:33;8.90;25.20
728;DHT22;347;48.780;9.158;2024-02-14T02:41:59;8.70;24.80
728;DHT22;347;48.780;9.158;2024-02-14T02:44:25;8.80;24.90
728;DHT22;347;48.780;9.158;2024-02-14T02:46:51;8.70;24.40
728;DHT22;347;48.780;9.158;2024-02-14T02:49:17;8.80;24.80
728;DHT22;347;48.780;9.158;2024-02-14T02:51:43;8.90;25.10
728;DHT22;347;48.780;9.158;2024-02-14T02:54:09;9.00;23.90
728;DHT22;347;48.780;9.158;2024-02-14T02:56:37;9.10;24.20
728;DHT22;347;48.780;9.158;2024-02-14T02:59:03;9.10;23.40
728;DHT22;347;48.780;9.158;2024-02-14T03:01:37;9.10;23.40
728;DHT22;347;48.780;9.158;2024-02-14T03:04:03;9.10;23.80
728;DHT22;347;48.780;9.158;2024-02-14T03:06:30;9.20;23.70
728;DHT22;347;48.780;9.158;2024-02-14T03:08:56;9.40;23.50
728;DHT22;347;48.780;9.158;2024-02-14T03:14:44;9.60;23.10
728;DHT22;347;48.780;9.158;2024-02-14T03:17:10;9.70;22.50
728;DHT22;347;48.780;9.158;2024-02-14T03:19:35;9.80;22.30
728;DHT22;347;48.780;9.158;2024-02-14T03:22:04;9.70;22.30
728;DHT22;347;48.780;9.158;2024-02-14T03:24:34;9.80;21.60
728;DHT22;347;48.780;9.158;2024-02-14T03:27:02;10.00;20.80
728;DHT22;347;48.780;9.158;2024-02-14T03:29:29;9.90;21.60
728;DHT22;347;48.780;9.158;2024-02-14T03:31:55;9.70;22.40
728;DHT22;347;48.780;9.158;2024-02-14T03:34:24;9.60;22.00
728;DHT22;347;48.780;9.158;2024-02-14T03:36:50;9.60;23.00
728;DHT22;347;48.780;9.158;2024-02-14T03:39:16;9.60;22.70
728;DHT22;347;48.780;9.158;2024-02-14T03:41:42;9.60;22.90
728;DHT22;347;48.780;9.158;2024-02-14T03:44:08;9.40;22.70
728;DHT22;347;48.780;9.158;2024-02-14T03:46:34;9.20;22.60
728;DHT22;347;48.780;9.158;2024-02-14T03:49:00;9.00;23.30
728;DHT22;347;48.780;9.158;2024-02-14T03:51:29;8.80;23.20
728;DHT22;347;48.780;9.158;2024-02-14T03:54:01;8.80;23.70
728;DHT22;347;48.780;9.158;2024-02-14T03:56:37;8.70;24.00
728;DHT22;347;48.780;9.158;2024-02-14T03:59:03;8.70;24.40
728;DHT22;347;48.780;9.158;2024-02-14T04:01:31;8.80;24.20
728;DHT22;347;48.780;9.158;2024-02-14T04:03:56;8.90;24.20
728;DHT22;347;48.780;9.158;2024-02-14T04:06:22;9.20;23.40
728;DHT22;347;48.780;9.158;2024-02-14T04:08:47;9.30;23.50
728;DHT22;347;48.780;9.158;2024-02-14T04:11:14;9.40;23.20
728;DHT22;347;48.780;9.158;2024-02-14T04:13:40;9.50;23.10
728;DHT22;347;48.780;9.158;2024-02-14T04:16:06;9.60;22.80
728;DHT22;347;48.780;9.158;2024-02-14T04:18:31;9.80;23.00
728;DHT22;347;48.780;9.158;2024-02-14T04:20:57;9.90;22.40
728;DHT22;347;48.780;9.158;2024-02-14T04:23:22;10.10;21.20
728;DHT22;347;48.780;9.158;2024-02-14T04:25:50;10.10;21.10
728;DHT22;347;48.780;9.158;2024-02-14T04:28:15;10.10;20.80
728;DHT22;347;48.780;9.158;2024-02-14T04:30:41;10.20;20.20
728;DHT22;347;48.780;9.158;2024-02-14T04:33:07;10.30;19.70
728;DHT22;347;48.780;9.158;2024-02-14T04:35:33;10.50;19.40
728;DHT22;347;48.780;9.158;2024-02-14T04:37:59;10.60;19.10
728;DHT22;347;48.780;9.158;2024-02-14T04:40:24;10.70;18.70
728;DHT22;347;48.780;9.158;2024-02-14T04:42:50;10.80;18.60
728;DHT22;347;48.780;9.158;2024-02-14T04:45:15;10.80;18.50
728;DHT22;347;48.780;9.158;2024-02-14T04:47:41;10.70;19.00
728;DHT22;347;48.780;9.158;2024-02-14T04:50:08;10.70;18.70
728;DHT22;347;48.780;9.158;2024-02-14T04:52:33;10.60;18.50
728;DHT22;347;48.780;9.158;2024-02-14T04:54:59;10.60;18.20
728;DHT22;347;48.780;9.158;2024-02-14T04:57:24;10.70;18.20
728;DHT22;347;48.780;9.158;2024-02-14T04:59:50;10.70;17.50
728;DHT22;347;48.780;9.158;2024-02-14T05:02:16;10.70;17.40
728;DHT22;347;48.780;9.158;2024-02-14T05:04:41;10.70;17.70
728;DHT22;347;48.780;9.158;2024-02-14T05:07:07;10.50;17.30
728;DHT22;347;48.780;9.158;2024-02-14T05:09:32;10.50;17.60
728;DHT22;347;48.780;9.158;2024-02-14T05:11:58;10.40;17.90
728;DHT22;347;48.780;9.158;2024-02-14T05:14:24;10.30;17.70
728;DHT22;347;48.780;9.158;2024-02-14T05:16:49;10.30;18.30
728;DHT22;347;48.780;9.158;2024-02-14T05:19:15;10.40;18.50
728;DHT22;347;48.780;9.158;2024-02-14T05:21:40;10.20;18.10
728;DHT22;347;48.780;9.158;2024-02-14T05:24:06;10.10;18.80
728;DHT22;347;48.780;9.158;2024-02-14T05:26:32;10.10;18.60
728;DHT22;347;48.780;9.158;2024-02-14T05:28:58;10.00;18.90
728;DHT22;347;48.780;9.158;2024-02-14T05:31:24;10.00;19.20
728;DHT22;347;48.780;9.158;2024-02-14T05:33:50;10.00;19.70
728;DHT22;347;48.780;9.158;2024-02-14T05:36:15;10.00;19.40
728;DHT22;347;48.780;9.158;2024-02-14T05:38:41;10.20;19.30
728;DHT22;347;48.780;9.158;2024-02-14T05:41:06;10.30;19.10
728;DHT22;347;48.780;9.158;2024-02-14T05:43:33;10.50;18.50
728;DHT22;347;48.780;9.158;2024-02-14T05:45:59;10.50;17.70
728;DHT22;347;48.780;9.158;2024-02-14T05:48:26;10.40;17.90
728;DHT22;347;48.780;9.158;2024-02-14T05:50:52;10.50;18.10
728;DHT22;347;48.780;9.158;2024-02-14T05:53:18;10.60;18.10
728;DHT22;347;48.780;9.158;2024-02-14T05:55:43;10.50;18.00
728;DHT22;347;48.780;9.158;2024-02-14T05:58:09;10.50;18.30
728;DHT22;347;48.780;9.158;2024-02-14T06:00:35;10.40;18.30
728;DHT22;347;48.780;9.158;2024-02-14T06:03:01;10.30;18.30
728;DHT22;347;48.780;9.158;2024-02-14T06:05:27;10.00;18.40
728;DHT22;347;48.780;9.158;2024-02-14T06:07:52;9.80;19.60
728;DHT22;347;48.780;9.158;2024-02-14T06:10:18;9.80;19.70
728;DHT22;347;48.780;9.158;2024-02-14T06:12:44;9.50;20.20
728;DHT22;347;48.780;9.158;2024-02-14T06:15:10;9.50;20.50
728;DHT22;347;48.780;9.158;2024-02-14T06:17:35;9.60;20.60
728;DHT22;347;48.780;9.158;2024-02-14T06:20:01;9.80;20.80
728;DHT22;347;48.780;9.158;2024-02-14T06:22:31;9.90;20.60
728;DHT22;347;48.780;9.158;2024-02-14T06:24:57;10.00;19.70
728;DHT22;347;48.780;9.158;2024-02-14T06:27:23;10.10;19.30
728;DHT22;347;48.780;9.158;2024-02-14T06:29:49;10.00;18.90
728;DHT22;347;48.780;9.158;2024-02-14T06:32:14;10.00;18.90
728;DHT22;347;48.780;9.158;2024-02-14T06:34:40;10.00;18.70
728;DHT22;347;48.780;9.158;2024-02-14T06:37:05;9.90;19.40
728;DHT22;347;48.780;9.158;2024-02-14T06:39:31;9.70;20.00
728;DHT22;347;48.780;9.158;2024-02-14T06:41:57;9.60;21.00
728;DHT22;347;48.780;9.158;2024-02-14T06:44:23;9.50;20.70
728;DHT22;347;48.780;9.158;2024-02-14T06:46:48;9.50;20.50
728;DHT22;347;48.780;9.158;2024-02-14T06:49:15;9.60;20.60
728;DHT22;347;48.780;9.158;2024-02-14T06:51:41;9.60;20.20
728;DHT22;347;48.780;9.158;2024-02-14T06:54:06;9.70;20.10
728;DHT22;347;48.780;9.158;2024-02-14T06:56:33;9.80;19.90
728;DHT22;347;48.780;9.158;2024-02-14T06:58:58;10.00;18.90
728;DHT22;347;48.780;9.158;2024-02-14T07:01:26;10.00;19.40
728;DHT22;347;48.780;9.158;2024-02-14T07:03:52;10.10;18.90
728;DHT22;347;48.780;9.158;2024-02-14T07:06:18;10.20;18.20
728;DHT22;347;48.780;9.158;2024-02-14T07:08:45;10.20;18.50
728;DHT22;347;48.780;9.158;2024-02-14T07:11:14;10.30;18.20
728;DHT22;347;48.780;9.158;2024-02-14T07:13:40;10.40;18.60
728;DHT22;347;48.780;9.158;2024-02-14T07:16:06;10.50;18.40
728;DHT22;347;48.780;9.158;2024-02-14T07:18:33;10.60;18.10
728;DHT22;347;48.780;9.158;2024-02-14T07:20:59;10.60;18.10
728;DHT22;347;48.780;9.158;2024-02-14T07:23:24;10.70;18.20
728;DHT22;347;48.780;9.158;2024-02-14T07:25:51;10.80;18.00
728;DHT22;347;48.780;9.158;2024-02-14T07:28:17;10.80;17.90
728;DHT22;347;48.780;9.158;2024-02-14T07:30:43;10.80;17.90
728;DHT22;347;48.780;9.158;2024-02-14T07:33:09;10.80;18.00
728;DHT22;347;48.780;9.158;2024-02-14T07:35:38;10.80;18.60
728;DHT22;347;48.780;9.158;2024-02-14T07:38:03;10.80;18.60
728;DHT22;347;48.780;9.158;2024-02-14T07:40:29;10.80;18.90
728;DHT22;347;48.780;9.158;2024-02-14T07:42:57;10.60;18.20
728;DHT22;347;48.780;9.158;2024-02-14T07:45:22;10.70;18.80
728;DHT22;347;48.780;9.158;2024-02-14T07:47:49;10.70;18.60
728;DHT22;347;48.780;9.158;2024-02-14T07:50:15;10.70;18.40
728;DHT22;347;48.780;9.158;2024-02-14T07:52:42;10.80;19.00
728;DHT22;347;48.780;9.158;2024-02-14T07:55:09;10.80;18.10
728;DHT22;347;48.780;9.158;2024-02-14T07:57:37;10.80;18.40
728;DHT22;347;48.780;9.158;2024-02-14T08:00:04;11.00;18.70
728;DHT22;347;48.780;9.158;2024-02-14T08:02:30;11.00;18.80
728;DHT22;347;48.780;9.158;2024-02-14T08:04:57;11.00;18.40
728;DHT22;347;48.780;9.158;2024-02-14T08:07:22;11.00;18.60
728;DHT22;347;48.780;9.158;2024-02-14T08:09:48;11.10;19.20
728;DHT22;347;48.780;9.158;2024-02-14T08:12:13;11.10;18.70
728;DHT22;347;48.780;9.158;2024-02-14T08:14:39;11.10;18.90
728;DHT22;347;48.780;9.158;2024-02-14T08:17:04;11.20;18.30
728;DHT22;347;48.780;9.158;2024-02-14T08:19:31;11.30;18.60
728;DHT22;347;48.780;9.158;2024-02-14T08:21:57;11.30;18.10
728;DHT22;347;48.780;9.158;2024-02-14T08:24:25;11.40;18.30
728;DHT22;347;48.780;9.158;2024-02-14T08:26:51;11.40;18.30
728;DHT22;347;48.780;9.158;2024-02-14T08:29:17;11.30;17.90
728;DHT22;347;48.780;9.158;2024-02-14T08:31:43;11.30;18.40
728;DHT22;347;48.780;9.158;2024-02-14T08:34:09;11.10;18.30
728;DHT22;347;48.780;9.158;2024-02-14T08:36:35;11.10;19.20
728;DHT22;347;48.780;9.158;2024-02-14T08:39:06;11.00;18.80
728;DHT22;347;48.780;9.158;2024-02-14T08:41:32;11.00;18.70
728;DHT22;347;48.780;9.158;2024-02-14T08:43:58;11.00;18.80
728;DHT22;347;48.780;9.158;2024-02-14T08:46:23;11.10;18.90
728;DHT22;347;48.780;9.158;2024-02-14T08:48:51;11.10;19.20
728;DHT22;347;48.780;9.158;2024-02-14T08:51:17;11.10;19.50
728;DHT22;347;48.780;9.158;2024-02-14T08:53:45;11.20;19.10
728;DHT22;347;48.780;9.158;2024-02-14T08:56:11;11.20;18.20
728;DHT22;347;48.780;9.158;2024-02-14T08:58:40;11.10;18.00
728;DHT22;347;48.780;9.158;2024-02-14T09:01:05;11.10;18.20
728;DHT22;347;48.780;9.158;2024-02-14T09:03:35;11.10;18.30
728;DHT22;347;48.780;9.158;2024-02-14T09:06:00;11.10;18.10
728;DHT22;347;48.780;9.158;2024-02-14T09:08:28;11.00;18.80
728;DHT22;347;48.780;9.158;2024-02-14T09:10:56;11.00;18.70
728;DHT22;347;48.780;9.158;2024-02-14T09:13:21;11.10;19.30
728;DHT22;347;48.780;9.158;2024-02-14T09:15:46;11.10;19.00
728;DHT22;347;48.780;9.158;2024-02-14T09:18:13;11.20;19.10
728;DHT22;347;48.780;9.158;2024-02-14T09:20:40;11.30;19.80
728;DHT22;347;48.780;9.158;2024-02-14T09:23:06;11.50;19.70
728;DHT22;347;48.780;9.158;2024-02-14T09:25:31;11.50;18.40
728;DHT22;347;48.780;9.158;2024-02-14T09:27:57;11.50;18.40
728;DHT22;347;48.780;9.158;2024-02-14T09:30:22;11.30;18.80
728;DHT22;347;48.780;9.158;2024-02-14T09:32:48;11.50;19.00
728;DHT22;347;48.780;9.158;2024-02-14T09:35:15;11.50;18.80
728;DHT22;347;48.780;9.158;2024-02-14T09:37:41;11.60;18.50
728;DHT22;347;48.780;9.158;2024-02-14T09:40:07;11.70;18.70
728;DHT22;347;48.780;9.158;2024-02-14T09:42:44;11.80;18.60
728;DHT22;347;48.780;9.158;2024-02-14T09:45:11;11.80;18.40
728;DHT22;347;48.780;9.158;2024-02-14T09:47:37;11.80;18.30
728;DHT22;347;48.780;9.158;2024-02-14T09:50:06;11.80;18.70
728;DHT22;347;48.780;9.158;2024-02-14T09:52:33;11.70;18.70
728;DHT22;347;48.780;9.158;2024-02-14T09:55:00;11.80;19.20
728;DHT22;347;48.780;9.158;2024-02-14T09:57:29;11.70;19.20
728;DHT22;347;48.780;9.158;2024-02-14T09:59:56;11.70;19.50
728;DHT22;347;48.780;9.158;2024-02-14T10:02:22;11.70;19.40
728;DHT22;347;48.780;9.158;2024-02-14T10:04:47;11.80;19.70
728;DHT22;347;48.780;9.158;2024-02-14T10:07:13;11.80;19.60
728;DHT22;347;48.780;9.158;2024-02-14T10:09:42;11.80;19.60
728;DHT22;347;48.780;9.158;2024-02-14T10:12:09;11.90;19.70
728;DHT22;347;48.780;9.158;2024-02-14T10:14:35;11.90;19.90
728;DHT22;347;48.780;9.158;2024-02-14T10:17:05;11.90;20.40
728;DHT22;347;48.780;9.158;2024-02-14T10:19:30;11.90;20.60
728;DHT22;347;48.780;9.158;2024-02-14T10:21:59;12.00;20.80
728;DHT22;347;48.780;9.158;2024-02-14T10:24:27;12.00;21.20
728;DHT22;347;48.780;9.158;2024-02-14T10:26:53;11.90;21.90
728;DHT22;347;48.780;9.158;2024-02-14T10:29:22;12.00;22.10
728;DHT22;347;48.780;9.158;2024-02-14T10:31:48;12.00;22.10
728;DHT22;347;48.780;9.158;2024-02-14T10:34:14;12.00;22.10
728;DHT22;347;48.780;9.158;2024-02-14T10:36:42;12.10;22.60
728;DHT22;347;48.780;9.158;2024-02-14T10:39:09;12.20;22.60
728;DHT22;347;48.780;9.158;2024-02-14T10:41:36;12.20;22.60
728;DHT22;347;48.780;9.158;2024-02-14T10:44:03;12.20;22.70
728;DHT22;347;48.780;9.158;2024-02-14T10:46:37;12.30;22.50
728;DHT22;347;48.780;9.158;2024-02-14T10:49:06;12.40;22.40
728;DHT22;347;48.780;9.158;2024-02-14T10:51:38;12.40;22.40
728;DHT22;347;48.780;9.158;2024-02-14T10:54:09;12.40;22.50
728;DHT22;347;48.780;9.158;2024-02-14T10:56:39;12.30;22.40
728;DHT22;347;48.780;9.158;2024-02-14T10:59:09;12.40;22.60
728;DHT22;347;48.780;9.158;2024-02-14T11:04:52;12.50;22.90
728;DHT22;347;48.780;9.158;2024-02-14T11:07:50;12.50;23.40
728;DHT22;347;48.780;9.158;2024-02-14T11:10:28;12.50;23.50
728;DHT22;347;48.780;9.158;2024-02-14T11:13:01;12.60;23.60
728;DHT22;347;48.780;9.158;2024-02-14T11:15:27;12.70;23.60
728;DHT22;347;48.780;9.158;2024-02-14T11:18:04;12.70;23.40
728;DHT22;347;48.780;9.158;2024-02-14T11:20:35;12.70;24.10
728;DHT22;347;48.780;9.158;2024-02-14T11:23:03;12.60;24.40
728;DHT22;347;48.780;9.158;2024-02-14T11:25:33;12.70;24.60
728;DHT22;347;48.780;9.158;2024-02-14T11:28:15;12.70;24.30
728;DHT22;347;48.780;9.158;2024-02-14T11:30:42;12.80;25.00
728;DHT22;347;48.780;9.158;2024-02-14T11:33:28;12.70;25.00
728;DHT22;347;48.780;9.158;2024-02-14T11:35:54;12.70;25.00
728;DHT22;347;48.780;9.158;2024-02-14T11:38:24;12.80;25.10
728;DHT22;347;48.780;9.158;2024-02-14T11:40:56;12.80;25.00
728;DHT22;347;48.780;9.158;2024-02-14T11:46:33;13.10;24.60
728;DHT22;347;48.780;9.158;2024-02-14T11:49:03;13.00;24.50
728;DHT22;347;48.780;9.158;2024-02-14T11:51:30;13.00;24.60
728;DHT22;347;48.780;9.158;2024-02-14T11:53:57;12.90;24.80
728;DHT22;347;48.780;9.158;2024-02-14T11:56:35;12.80;25.10
728;DHT22;347;48.780;9.158;2024-02-14T11:59:02;12.80;25.00
728;DHT22;347;48.780;9.158;2024-02-14T12:01:31;12.80;25.10
728;DHT22;347;48.780;9.158;2024-02-14T12:04:01;12.80;25.10
728;DHT22;347;48.780;9.158;2024-02-14T12:06:31;12.80;25.10
728;DHT22;347;48.780;9.158;2024-02-14T12:09:02;13.00;24.80
728;DHT22;347;48.780;9.158;2024-02-14T12:11:34;13.00;24.60
728;DHT22;347;48.780;9.158;2024-02-14T12:14:03;13.10;24.60
728;DHT22;347;48.780;9.158;2024-02-14T12:16:29;13.10;24.40
728;DHT22;347;48.780;9.158;2024-02-14T12:19:27;13.10;24.30
728;DHT22;347;48.780;9.158;2024-02-14T12:21:54;13.20;24.40
728;DHT22;347;48.780;9.158;2024-02-14T12:24:21;13.30;24.20
728;DHT22;347;48.780;9.158;2024-02-14T12:26:48;13.40;24.20
728;DHT22;347;48.780;9.158;2024-02-14T12:29:18;13.50;24.10
728;DHT22;347;48.780;9.158;2024-02-14T12:31:44;13.60;23.60
728;DHT22;347;48.780;9.158;2024-02-14T12:34:11;13.60;23.60
728;DHT22;347;48.780;9.158;2024-02-14T12:36:36;13.60;23.40
728;DHT22;347;48.780;9.158;2024-02-14T12:39:03;13.70;23.20
728;DHT22;347;48.780;9.158;2024-02-14T12:41:30;13.70;23.20
728;DHT22;347;48.780;9.158;2024-02-14T12:43:56;13.60;23.30
728;DHT22;347;48.780;9.158;2024-02-14T12:46:22;13.70;23.30
728;DHT22;347;48.780;9.158;2024-02-14T12:48:48;13.60;23.30
728;DHT22;347;48.780;9.158;2024-02-14T12:51:14;13.60;23.40
728;DHT22;347;48.780;9.158;2024-02-14T12:53:40;13.70;23.60
728;DHT22;347;48.780;9.158;2024-02-14T12:56:07;13.70;23.30
728;DHT22;347;48.780;9.158;2024-02-14T12:58:32;13.70;23.70
728;DHT22;347;48.780;9.158;2024-02-14T13:00:58;13.80;23.60
728;DHT22;347;48.780;9.158;2024-02-14T13:03:27;13.90;23.30
728;DHT22;347;48.780;9.158;2024-02-14T13:05:54;14.00;23.00
728;DHT22;347;48.780;9.158;2024-02-14T13:08:20;14.00;22.90
728;DHT22;347;48.780;9.158;2024-02-14T13:10:46;14.10;22.70
728;DHT22;347;48.780;9.158;2024-02-14T13:13:12;14.10;22.80
728;DHT22;347;48.780;9.158;2024-02-14T13:15:38;14.20;22.70
728;DHT22;347;48.780;9.158;2024-02-14T13:18:05;14.20;22.40
728;DHT22;347;48.780;9.158;2024-02-14T13:20:34;14.20;22.40
728;DHT22;347;48.780;9.158;2024-02-14T13:22:59;14.20;22.50
728;DHT22;347;48.780;9.158;2024-02-14T13:25:28;14.20;22.50
728;DHT22;347;48.780;9.158;2024-02-14T13:27:53;14.20;22.50
728;DHT22;347;48.780;9.158;2024-02-14T13:30:24;14.20;22.40
728;DHT22;347;48.780;9.158;2024-02-14T13:32:49;14.20;22.30
728;DHT22;347;48.780;9.158;2024-02-14T13:35:18;14.20;22.60
728;DHT22;347;48.780;9.158;2024-02-14T13:37:44;14.20;22.80
728;DHT22;347;48.780;9.158;2024-02-14T13:40:10;14.20;22.80
728;DHT22;347;48.780;9.158;2024-02-14T13:42:39;14.20;22.70
728;DHT22;347;48.780;9.158;2024-02-14T13:45:08;14.30;22.90
728;DHT22;347;48.780;9.158;2024-02-14T13:47:40;14.30;22.80
728;DHT22;347;48.780;9.158;2024-02-14T13:50:08;14.30;22.70
728;DHT22;347;48.780;9.158;2024-02-14T13:52:37;14.50;22.60
728;DHT22;347;48.780;9.158;2024-02-14T13:55:05;14.50;22.50
728;DHT22;347;48.780;9.158;2024-02-14T13:57:39;14.60;22.20
728;DHT22;347;48.780;9.158;2024-02-14T14:00:23;14.50;22.50
728;DHT22;347;48.780;9.158;2024-02-14T14:02:48;14.50;22.40
728;DHT22;347;48.780;9.158;2024-02-14T14:05:14;14.60;22.50
728;DHT22;347;48.780;9.158;2024-02-14T14:07:46;14.60;22.60
728;DHT22;347;48.780;9.158;2024-02-14T14:10:14;14.60;22.70
728;DHT22;347;48.780;9.158;2024-02-14T14:12:41;14.60;22.90
728;DHT22;347;48.780;9.158;2024-02-14T14:15:16;14.60;23.10
728;DHT22;347;48.780;9.158;2024-02-14T14:17:44;14.60;23.30
728;DHT22;347;48.780;9.158;2024-02-14T14:20:30;14.50;23.40
728;DHT22;347;48.780;9.158;2024-02-14T14:22:58;14.50;23.70
728;DHT22;347;48.780;9.158;2024-02-14T14:25:36;14.50;24.50
728;DHT22;347;48.780;9.158;2024-02-14T14:34:17;14.40;23.90
728;DHT22;347;48.780;9.158;2024-02-14T14:36:45;14.40;23.90
728;DHT22;347;48.780;9.158;2024-02-14T14:39:50;14.40;23.90
728;DHT22;347;48.780;9.158;2024-02-14T14:43:06;14.40;23.80
728;DHT22;347;48.780;9.158;2024-02-14T14:45:33;14.30;23.90
728;DHT22;347;48.780;9.158;2024-02-14T14:47:58;14.30;23.90
728;DHT22;347;48.780;9.158;2024-02-14T14:50:27;14.30;24.20
728;DHT22;347;48.780;9.158;2024-02-14T14:52:53;14.30;24.00
728;DHT22;347;48.780;9.158;2024-02-14T14:55:23;14.30;24.00
728;DHT22;347;48.780;9.158;2024-02-14T14:57:55;14.30;24.00
728;DHT22;347;48.780;9.158;2024-02-14T15:00:24;14.30;24.10
728;DHT22;347;48.780;9.158;2024-02-14T15:02:50;14.30;24.20
728;DHT22;347;48.780;9.158;2024-02-14T15:05:21;14.30;24.30
728;DHT22;347;48.780;9.158;2024-02-14T15:08:07;14.30;24.20
728;DHT22;347;48.780;9.158;2024-02-14T15:10:41;14.20;24.20
728;DHT22;347;48.780;9.158;2024-02-14T15:13:07;14.20;24.30
728;DHT22;347;48.780;9.158;2024-02-14T15:15:41;14.20;24.30
728;DHT22;347;48.780;9.158;2024-02-14T15:18:09;14.20;24.30
728;DHT22;347;48.780;9.158;2024-02-14T15:20:35;14.20;24.50
728;DHT22;347;48.780;9.158;2024-02-14T15:23:03;14.20;24.50
728;DHT22;347;48.780;9.158;2024-02-14T15:25:29;14.20;24.60
728;DHT22;347;48.780;9.158;2024-02-14T15:27:54;14.20;24.50
728;DHT22;347;48.780;9.158;2024-02-14T15:30:22;14.20;24.30
728;DHT22;347;48.780;9.158;2024-02-14T15:33:06;14.20;24.40
728;DHT22;347;48.780;9.158;2024-02-14T15:35:52;14.20;24.50
728;DHT22;347;48.780;9.158;2024-02-14T15:38:18;14.20;24.30
728;DHT22;347;48.780;9.158;2024-02-14T15:40:54;14.20;24.40
728;DHT22;347;48.780;9.158;2024-02-14T15:43:33;14.30;24.50
728;DHT22;347;48.780;9.158;2024-02-14T15:45:59;14.20;24.30
728;DHT22;347;48.780;9.158;2024-02-14T15:48:30;14.30;24.50
728;DHT22;347;48.780;9.158;2024-02-14T15:51:01;14.30;24.50
728;DHT22;347;48.780;9.158;2024-02-14T15:53:29;14.30;24.40
728;DHT22;347;48.780;9.158;2024-02-14T15:55:59;14.30;24.20
728;DHT22;347;48.780;9.158;2024-02-14T15:58:27;14.40;24.30
728;DHT22;347;48.780;9.158;2024-02-14T16:00:55;14.30;24.30
728;DHT22;347;48.780;9.158;2024-02-14T16:03:22;14.30;24.40
728;DHT22;347;48.780;9.158;2024-02-14T16:05:51;14.30;24.40
728;DHT22;347;48.780;9.158;2024-02-14T16:08:27;14.20;24.50
728;DHT22;347;48.780;9.158;2024-02-14T16:10:53;14.20;24.40
728;DHT22;347;48.780;9.158;2024-02-14T16:13:28;14.20;24.50
728;DHT22;347;48.780;9.158;2024-02-14T16:18:22;14.20;24.60
728;DHT22;347;48.780;9.158;2024-02-14T16:21:16;14.20;24.50
728;DHT22;347;48.780;9.158;2024-02-14T16:24:00;14.30;24.60
728;DHT22;347;48.780;9.158;2024-02-14T16:26:28;14.30;24.40
728;DHT22;347;48.780;9.158;2024-02-14T16:29:05;14.30;24.70
728;DHT22;347;48.780;9.158;2024-02-14T16:31:34;14.40;24.50
728;DHT22;347;48.780;9.158;2024-02-14T16:34:34;14.40;24.30
728;DHT22;347;48.780;9.158;2024-02-14T16:37:00;14.40;24.30
728;DHT22;347;48.780;9.158;2024-02-14T16:39:54;14.50;24.20
728;DHT22;347;48.780;9.158;2024-02-14T16:42:33;14.50;23.90
728;DHT22;347;48.780;9.158;2024-02-14T16:45:07;14.50;24.30
728;DHT22;347;48.780;9.158;2024-02-14T16:47:33;14.40;24.30
728;DHT22;347;48.780;9.158;2024-02-14T16:50:02;14.30;24.60
728;DHT22;347;48.780;9.158;2024-02-14T16:52:49;14.40;24.70
728;DHT22;347;48.780;9.158;2024-02-14T16:55:16;14.40;24.50
728;DHT22;347;48.780;9.158;2024-02-14T16:57:42;14.40;24.60
728;DHT22;347;48.780;9.158;2024-02-14T17:00:08;14.50;24.70
728;DHT22;347;48.780;9.158;2024-02-14T17:02:45;14.50;24.30
728;DHT22;347;48.780;9.158;2024-02-14T17:05:11;14.50;24.30
728;DHT22;347;48.780;9.158;2024-02-14T17:07:37;14.50;24.60